地図

経路データ

SID SEASON NUMBER BASIN SUBBASIN NAME ISO_TIME NATURE LAT LON WMO_WIND WMO_PRES WMO_AGENCY TRACK_TYPE DIST2LAND LANDFALL IFLAG USA_AGENCY USA_ATCF_ID USA_LAT USA_LON USA_RECORD USA_STATUS USA_WIND USA_PRES USA_SSHS USA_R34_NE USA_R34_SE USA_R34_SW USA_R34_NW USA_R50_NE USA_R50_SE USA_R50_SW USA_R50_NW USA_R64_NE USA_R64_SE USA_R64_SW USA_R64_NW USA_POCI USA_ROCI USA_RMW USA_EYE TOKYO_LAT TOKYO_LON TOKYO_GRADE TOKYO_WIND TOKYO_PRES TOKYO_R50_DIR TOKYO_R50_LONG TOKYO_R50_SHORT TOKYO_R30_DIR TOKYO_R30_LONG TOKYO_R30_SHORT TOKYO_LAND CMA_LAT CMA_LON CMA_CAT CMA_WIND CMA_PRES HKO_LAT HKO_LON HKO_CAT HKO_WIND HKO_PRES NEWDELHI_LAT NEWDELHI_LON NEWDELHI_GRADE NEWDELHI_WIND NEWDELHI_PRES NEWDELHI_CI NEWDELHI_DP NEWDELHI_POCI REUNION_LAT REUNION_LON REUNION_TYPE REUNION_WIND REUNION_PRES REUNION_TNUM REUNION_CI REUNION_RMW REUNION_R34_NE REUNION_R34_SE REUNION_R34_SW REUNION_R34_NW REUNION_R50_NE REUNION_R50_SE REUNION_R50_SW REUNION_R50_NW REUNION_R64_NE REUNION_R64_SE REUNION_R64_SW REUNION_R64_NW BOM_LAT BOM_LON BOM_TYPE BOM_WIND BOM_PRES BOM_TNUM BOM_CI BOM_RMW BOM_R34_NE BOM_R34_SE BOM_R34_SW BOM_R34_NW BOM_R50_NE BOM_R50_SE BOM_R50_SW BOM_R50_NW BOM_R64_NE BOM_R64_SE BOM_R64_SW BOM_R64_NW BOM_ROCI BOM_POCI BOM_EYE BOM_POS_METHOD BOM_PRES_METHOD NADI_LAT NADI_LON NADI_CAT NADI_WIND NADI_PRES WELLINGTON_LAT WELLINGTON_LON WELLINGTON_WIND WELLINGTON_PRES DS824_LAT DS824_LON DS824_STAGE DS824_WIND DS824_PRES TD9636_LAT TD9636_LON TD9636_STAGE TD9636_WIND TD9636_PRES TD9635_LAT TD9635_LON TD9635_WIND TD9635_PRES TD9635_ROCI NEUMANN_LAT NEUMANN_LON NEUMANN_CLASS NEUMANN_WIND NEUMANN_PRES MLC_LAT MLC_LON MLC_CLASS MLC_WIND MLC_PRES USA_GUST BOM_GUST BOM_GUST_PER REUNION_GUST REUNION_GUST_PER USA_SEAHGT USA_SEARAD_NE USA_SEARAD_SE USA_SEARAD_SW USA_SEARAD_NW STORM_SPEED STORM_DIR
1921042S20115 1921 11 SI WA NOT_NAMED 1921-02-11 06:00:00 NR -20.0000 115.100 main 148 148 _____O________ -1 -20.0000 115.100 99 9.90000 1 43
1921042S20115 1921 11 SI WA NOT_NAMED 1921-02-11 09:00:00 NR -19.9589 115.145 main 148 142 _____P________ -1 -19.9589 115.145 99 1 46
1921042S20115 1921 11 SI WA NOT_NAMED 1921-02-11 12:00:00 NR -19.9277 115.185 main 152 152 _____P________ -1 -19.9277 115.185 99 1 57
1921042S20115 1921 11 SI WA NOT_NAMED 1921-02-11 15:00:00 NR -19.9162 115.217 main 152 152 _____P________ -1 -19.9162 115.217 99 0 100
1921042S20115 1921 11 SI WA NOT_NAMED 1921-02-11 18:00:00 NR -19.9343 115.236 main 152 142 _____P________ -1 -19.9343 115.236 99 1 163
1921042S20115 1921 11 SI WA NOT_NAMED 1921-02-11 21:00:00 NR -19.9919 115.239 main 142 133 _____P________ -1 -19.9919 115.239 99 2 0
1921042S20115 1921 11 SI WA NOT_NAMED 1921-02-12 00:00:00 NR -20.0988 115.220 main 133 115 _____P________ -1 -20.0988 115.220 99 3 193
1921042S20115 1921 11 SI WA NOT_NAMED 1921-02-12 03:00:00 NR -20.2649 115.175 main 115 106 _____P________ -1 -20.2649 115.175 99 4 196
1921042S20115 1921 11 SI WA NOT_NAMED 1921-02-12 06:00:00 NR -20.5000 115.100 main 106 91 _____O________ -1 -20.5000 115.100 99 9.90000 6 197
1921042S20115 1921 11 SI WA NOT_NAMED 1921-02-12 09:00:00 NR -20.8124 114.992 main 91 54 _____P________ -1 -20.8124 114.992 99 7 198
1921042S20115 1921 11 SI WA NOT_NAMED 1921-02-12 12:00:00 NR -21.2044 114.855 main 54 22 _____P________ -1 -21.2044 114.855 99 9 198
1921042S20115 1921 11 SI WA NOT_NAMED 1921-02-12 15:00:00 NR -21.6773 114.694 main 11 0 _____P________ -1 -21.6773 114.694 99 11 197
1921042S20115 1921 11 SI WA NOT_NAMED 1921-02-12 18:00:00 NR -22.2320 114.514 main 0 0 _____P________ -1 -22.2320 114.514 99 12 196
1921042S20115 1921 11 SI WA NOT_NAMED 1921-02-12 21:00:00 NR -22.8700 114.319 main 0 0 _____P________ -1 -22.8700 114.319 99 14 195
1921042S20115 1921 11 SI WA NOT_NAMED 1921-02-13 00:00:00 NR -23.5928 114.116 main 0 0 _____P________ -1 -23.5928 114.116 99 16 194
1921042S20115 1921 11 SI WA NOT_NAMED 1921-02-13 03:00:00 NR -24.4021 113.908 main 0 0 _____P________ -1 -24.4021 113.908 99 18 192
1921042S20115 1921 11 SI WA NOT_NAMED 1921-02-13 06:00:00 NR -25.3000 113.700 main 15 0 _____O________ -1 -25.3000 113.700 99 9.90000 21 191
1921042S20115 1921 11 SI WA NOT_NAMED 1921-02-13 09:00:00 NR -26.4160 113.484 main 0 0 _____P________ -1 -26.4160 113.484 99 24 189
1921042S20115 1921 11 SI WA NOT_NAMED 1921-02-13 12:00:00 NR -27.6512 113.260 main 79 79 _____P________ -1 -27.6512 113.260 99 26 189
1921042S20115 1921 11 SI WA NOT_NAMED 1921-02-13 15:00:00 NR -28.9566 113.032 main 154 154 _____P________ -1 -28.9566 113.032 99 27 189
1921042S20115 1921 11 SI WA NOT_NAMED 1921-02-13 18:00:00 NR -30.2828 112.807 main 213 213 _____P________ -1 -30.2828 112.807 99 27 188
1921042S20115 1921 11 SI WA NOT_NAMED 1921-02-13 21:00:00 NR -31.5797 112.593 main 266 261 _____P________ -1 -31.5797 112.593 99 25 188
1921042S20115 1921 11 SI WA NOT_NAMED 1921-02-14 00:00:00 NR -32.7977 112.397 main 257 247 _____P________ -1 -32.7977 112.397 99 23 188
1921042S20115 1921 11 SI WA NOT_NAMED 1921-02-14 03:00:00 NR -33.8873 112.230 main 257 257 _____P________ -1 -33.8873 112.230 99 20 187
1921042S20115 1921 11 SI WA NOT_NAMED 1921-02-14 06:00:00 NR -34.8000 112.100 main 276 276 _____O________ -1 -34.8000 112.100 99 9.90000 16 186
1921042S20115 1921 11 SI WA NOT_NAMED 1921-02-14 09:00:00 NR -35.5006 112.015 main 307 307 _____P________ -1 -35.5006 112.015 99 12 185
1921042S20115 1921 11 SI WA NOT_NAMED 1921-02-14 12:00:00 NR -36.0053 111.974 main 332 332 _____P________ -1 -36.0053 111.974 99 8 183
1921042S20115 1921 11 SI WA NOT_NAMED 1921-02-14 15:00:00 NR -36.3426 111.970 main 351 351 _____P________ -1 -36.3426 111.970 99 5 0
1921042S20115 1921 11 SI WA NOT_NAMED 1921-02-14 18:00:00 NR -36.5409 111.998 main 365 365 _____P________ -1 -36.5409 111.998 99 3 167
1921042S20115 1921 11 SI WA NOT_NAMED 1921-02-14 21:00:00 NR -36.6280 112.051 main 365 365 _____P________ -1 -36.6280 112.051 99 1 132
1921042S20115 1921 11 SI WA NOT_NAMED 1921-02-15 00:00:00 NR -36.6318 112.123 main 365 358 _____P________ -1 -36.6318 112.123 99 1 68
1921042S20115 1921 11 SI WA NOT_NAMED 1921-02-15 03:00:00 NR -36.5799 112.209 main 358 344 _____P________ -1 -36.5799 112.209 99 2 47
1921042S20115 1921 11 SI WA NOT_NAMED 1921-02-15 06:00:00 NR -36.5000 112.300 main 344 _____O________ -1 -36.5000 112.300 99 9.90000 2 40

IBTrACS Databaseについて

本データベースは、米国NOAAが公開する1842年以降の世界の熱帯低気圧のベストトラックデータアーカイブInternational Best Track Archive for Climate Stewardship (IBTrACS)を、ウェブで閲覧しやすい形式に変換したものです。

最終更新日:2021-10-27